sensor_id;sensor_type;location;lat;lon;timestamp;temperature;humidity
27439;DHT22;14887;51.252;7.470;2022-09-17T00:00:37;8.20;99.90
27439;DHT22;14887;51.252;7.470;2022-09-17T00:03:04;8.30;99.90
27439;DHT22;14887;51.252;7.470;2022-09-17T00:05:29;8.20;99.90
27439;DHT22;14887;51.252;7.470;2022-09-17T00:07:55;8.20;99.90
27439;DHT22;14887;51.252;7.470;2022-09-17T00:10:21;8.20;99.90
27439;DHT22;14887;51.252;7.470;2022-09-17T00:12:48;8.20;99.90
27439;DHT22;14887;51.252;7.470;2022-09-17T00:15:13;8.20;99.90
27439;DHT22;14887;51.252;7.470;2022-09-17T00:17:40;8.20;99.90
27439;DHT22;14887;51.252;7.470;2022-09-17T00:20:07;8.20;99.90
27439;DHT22;14887;51.252;7.470;2022-09-17T00:22:34;8.20;99.90
27439;DHT22;14887;51.252;7.470;2022-09-17T00:25:00;8.10;99.90
27439;DHT22;14887;51.252;7.470;2022-09-17T00:27:26;8.10;99.90
27439;DHT22;14887;51.252;7.470;2022-09-17T00:29:51;8.10;99.90
27439;DHT22;14887;51.252;7.470;2022-09-17T00:32:17;8.10;99.90
27439;DHT22;14887;51.252;7.470;2022-09-17T00:34:42;8.20;99.90
27439;DHT22;14887;51.252;7.470;2022-09-17T00:37:08;8.10;99.90
27439;DHT22;14887;51.252;7.470;2022-09-17T00:39:33;8.00;99.90
27439;DHT22;14887;51.252;7.470;2022-09-17T00:41:59;8.00;99.90
27439;DHT22;14887;51.252;7.470;2022-09-17T00:44:41;8.00;99.90
27439;DHT22;14887;51.252;7.470;2022-09-17T00:49:42;8.00;99.90
27439;DHT22;14887;51.252;7.470;2022-09-17T00:52:13;8.10;99.90
27439;DHT22;14887;51.252;7.470;2022-09-17T00:54:43;8.10;99.90
27439;DHT22;14887;51.252;7.470;2022-09-17T00:57:10;8.10;99.90
27439;DHT22;14887;51.252;7.470;2022-09-17T00:59:36;8.00;99.90
27439;DHT22;14887;51.252;7.470;2022-09-17T01:02:03;8.10;99.90
27439;DHT22;14887;51.252;7.470;2022-09-17T01:04:28;8.10;99.90
27439;DHT22;14887;51.252;7.470;2022-09-17T01:07:10;8.10;99.90
27439;DHT22;14887;51.252;7.470;2022-09-17T01:09:58;8.10;99.90
27439;DHT22;14887;51.252;7.470;2022-09-17T01:21:10;8.10;99.90
27439;DHT22;14887;51.252;7.470;2022-09-17T01:32:30;8.10;99.90
27439;DHT22;14887;51.252;7.470;2022-09-17T01:41:03;8.10;99.90
27439;DHT22;14887;51.252;7.470;2022-09-17T01:43:54;8.10;99.90
27439;DHT22;14887;51.252;7.470;2022-09-17T01:46:27;8.10;99.90
27439;DHT22;14887;51.252;7.470;2022-09-17T01:48:58;8.10;99.90
27439;DHT22;14887;51.252;7.470;2022-09-17T01:51:29;8.00;99.90
27439;DHT22;14887;51.252;7.470;2022-09-17T01:54:09;8.10;99.90
27439;DHT22;14887;51.252;7.470;2022-09-17T01:56:41;8.10;99.90
27439;DHT22;14887;51.252;7.470;2022-09-17T01:59:28;8.10;99.90
27439;DHT22;14887;51.252;7.470;2022-09-17T02:02:02;8.10;99.90
27439;DHT22;14887;51.252;7.470;2022-09-17T02:04:45;8.10;99.90
27439;DHT22;14887;51.252;7.470;2022-09-17T02:07:17;8.10;99.90
27439;DHT22;14887;51.252;7.470;2022-09-17T02:09:54;8.10;99.90
27439;DHT22;14887;51.252;7.470;2022-09-17T02:12:28;8.10;99.90
27439;DHT22;14887;51.252;7.470;2022-09-17T02:14:58;8.10;99.90
27439;DHT22;14887;51.252;7.470;2022-09-17T02:17:33;8.10;99.90
27439;DHT22;14887;51.252;7.470;2022-09-17T02:19:59;8.10;99.90
27439;DHT22;14887;51.252;7.470;2022-09-17T02:22:31;8.10;99.90
27439;DHT22;14887;51.252;7.470;2022-09-17T02:27:56;8.10;99.90
27439;DHT22;14887;51.252;7.470;2022-09-17T02:30:22;8.10;99.90
27439;DHT22;14887;51.252;7.470;2022-09-17T02:32:48;8.10;99.90
27439;DHT22;14887;51.252;7.470;2022-09-17T02:35:14;8.10;99.90
27439;DHT22;14887;51.252;7.470;2022-09-17T02:37:40;8.10;99.90
27439;DHT22;14887;51.252;7.470;2022-09-17T02:40:07;8.10;99.90
27439;DHT22;14887;51.252;7.470;2022-09-17T02:48:18;8.10;99.90
27439;DHT22;14887;51.252;7.470;2022-09-17T02:56:15;8.10;99.90
27439;DHT22;14887;51.252;7.470;2022-09-17T02:58:55;8.20;99.90
27439;DHT22;14887;51.252;7.470;2022-09-17T03:01:31;8.10;99.90
27439;DHT22;14887;51.252;7.470;2022-09-17T03:03:59;8.20;99.90
27439;DHT22;14887;51.252;7.470;2022-09-17T03:06:26;8.10;99.90
27439;DHT22;14887;51.252;7.470;2022-09-17T03:08:52;8.10;99.90
27439;DHT22;14887;51.252;7.470;2022-09-17T03:11:18;8.10;99.90
27439;DHT22;14887;51.252;7.470;2022-09-17T03:13:43;8.10;99.90
27439;DHT22;14887;51.252;7.470;2022-09-17T03:16:09;8.10;99.90
27439;DHT22;14887;51.252;7.470;2022-09-17T03:18:35;8.10;99.90
27439;DHT22;14887;51.252;7.470;2022-09-17T03:21:00;8.10;99.90
27439;DHT22;14887;51.252;7.470;2022-09-17T03:23:26;8.10;99.90
27439;DHT22;14887;51.252;7.470;2022-09-17T03:25:52;8.10;99.90
27439;DHT22;14887;51.252;7.470;2022-09-17T03:28:18;8.10;99.90
27439;DHT22;14887;51.252;7.470;2022-09-17T03:30:44;8.10;99.90
27439;DHT22;14887;51.252;7.470;2022-09-17T03:33:10;8.10;99.90
27439;DHT22;14887;51.252;7.470;2022-09-17T03:35:35;8.10;99.90
27439;DHT22;14887;51.252;7.470;2022-09-17T03:38:02;8.00;99.90
27439;DHT22;14887;51.252;7.470;2022-09-17T03:40:27;8.00;99.90
27439;DHT22;14887;51.252;7.470;2022-09-17T03:42:53;8.00;99.90
27439;DHT22;14887;51.252;7.470;2022-09-17T03:45:18;8.00;99.90
27439;DHT22;14887;51.252;7.470;2022-09-17T03:47:44;8.00;99.90
27439;DHT22;14887;51.252;7.470;2022-09-17T03:50:09;8.00;99.90
27439;DHT22;14887;51.252;7.470;2022-09-17T03:52:35;8.00;99.90
27439;DHT22;14887;51.252;7.470;2022-09-17T03:55:01;8.00;99.90
27439;DHT22;14887;51.252;7.470;2022-09-17T03:57:26;8.00;99.90
27439;DHT22;14887;51.252;7.470;2022-09-17T03:59:52;8.10;99.90
27439;DHT22;14887;51.252;7.470;2022-09-17T04:02:17;8.10;99.90
27439;DHT22;14887;51.252;7.470;2022-09-17T04:04:43;8.10;99.90
27439;DHT22;14887;51.252;7.470;2022-09-17T04:07:08;8.00;99.90
27439;DHT22;14887;51.252;7.470;2022-09-17T04:09:34;8.00;99.90
27439;DHT22;14887;51.252;7.470;2022-09-17T04:11:59;8.00;99.90
27439;DHT22;14887;51.252;7.470;2022-09-17T04:14:25;8.00;99.90
27439;DHT22;14887;51.252;7.470;2022-09-17T04:16:51;8.00;99.90
27439;DHT22;14887;51.252;7.470;2022-09-17T04:19:16;8.00;99.90
27439;DHT22;14887;51.252;7.470;2022-09-17T04:21:42;7.90;99.90
27439;DHT22;14887;51.252;7.470;2022-09-17T04:24:07;8.00;99.90
27439;DHT22;14887;51.252;7.470;2022-09-17T04:26:33;7.90;99.90
27439;DHT22;14887;51.252;7.470;2022-09-17T04:28:59;8.00;99.90
27439;DHT22;14887;51.252;7.470;2022-09-17T04:31:25;7.90;99.90
27439;DHT22;14887;51.252;7.470;2022-09-17T04:33:52;7.90;99.90
27439;DHT22;14887;51.252;7.470;2022-09-17T04:36:17;7.90;99.90
27439;DHT22;14887;51.252;7.470;2022-09-17T04:38:42;7.90;99.90
27439;DHT22;14887;51.252;7.470;2022-09-17T04:41:08;7.90;99.90
27439;DHT22;14887;51.252;7.470;2022-09-17T04:43:34;7.90;99.90
27439;DHT22;14887;51.252;7.470;2022-09-17T04:45:59;7.90;99.90
27439;DHT22;14887;51.252;7.470;2022-09-17T04:48:25;7.90;99.90
27439;DHT22;14887;51.252;7.470;2022-09-17T04:50:51;7.90;99.90
27439;DHT22;14887;51.252;7.470;2022-09-17T04:53:16;7.90;99.90
27439;DHT22;14887;51.252;7.470;2022-09-17T04:55:43;7.90;99.90
27439;DHT22;14887;51.252;7.470;2022-09-17T04:58:09;7.80;99.90
27439;DHT22;14887;51.252;7.470;2022-09-17T05:00:35;7.80;99.90
27439;DHT22;14887;51.252;7.470;2022-09-17T05:03:01;7.80;99.90
27439;DHT22;14887;51.252;7.470;2022-09-17T05:05:27;7.70;99.90
27439;DHT22;14887;51.252;7.470;2022-09-17T05:07:52;7.70;99.90
27439;DHT22;14887;51.252;7.470;2022-09-17T05:10:20;7.70;99.90
27439;DHT22;14887;51.252;7.470;2022-09-17T05:12:50;7.70;99.90
27439;DHT22;14887;51.252;7.470;2022-09-17T05:15:16;7.70;99.90
27439;DHT22;14887;51.252;7.470;2022-09-17T05:17:42;7.70;99.90
27439;DHT22;14887;51.252;7.470;2022-09-17T05:20:08;7.80;99.90
27439;DHT22;14887;51.252;7.470;2022-09-17T05:22:34;7.80;99.90
27439;DHT22;14887;51.252;7.470;2022-09-17T05:24:59;7.80;99.90
27439;DHT22;14887;51.252;7.470;2022-09-17T05:27:25;7.90;99.90
27439;DHT22;14887;51.252;7.470;2022-09-17T05:29:50;7.80;99.90
27439;DHT22;14887;51.252;7.470;2022-09-17T05:32:16;7.90;99.90
27439;DHT22;14887;51.252;7.470;2022-09-17T05:34:41;7.90;99.90
27439;DHT22;14887;51.252;7.470;2022-09-17T05:37:10;7.90;99.90
27439;DHT22;14887;51.252;7.470;2022-09-17T05:39:36;7.90;99.90
27439;DHT22;14887;51.252;7.470;2022-09-17T05:42:01;7.90;99.90
27439;DHT22;14887;51.252;7.470;2022-09-17T05:44:27;8.00;99.90
27439;DHT22;14887;51.252;7.470;2022-09-17T05:46:53;7.90;99.90
27439;DHT22;14887;51.252;7.470;2022-09-17T05:49:19;8.00;99.90
27439;DHT22;14887;51.252;7.470;2022-09-17T05:51:44;8.00;99.90
27439;DHT22;14887;51.252;7.470;2022-09-17T05:54:10;8.00;99.90
27439;DHT22;14887;51.252;7.470;2022-09-17T05:56:35;8.00;99.90
27439;DHT22;14887;51.252;7.470;2022-09-17T05:59:01;8.10;99.90
27439;DHT22;14887;51.252;7.470;2022-09-17T06:01:27;8.10;99.90
27439;DHT22;14887;51.252;7.470;2022-09-17T06:03:53;8.20;99.90
27439;DHT22;14887;51.252;7.470;2022-09-17T06:06:19;8.20;99.90
27439;DHT22;14887;51.252;7.470;2022-09-17T06:08:45;8.20;99.90
27439;DHT22;14887;51.252;7.470;2022-09-17T06:11:11;8.30;99.90
27439;DHT22;14887;51.252;7.470;2022-09-17T06:13:36;8.40;99.90
27439;DHT22;14887;51.252;7.470;2022-09-17T06:16:02;8.50;99.90
27439;DHT22;14887;51.252;7.470;2022-09-17T06:18:29;8.70;99.90
27439;DHT22;14887;51.252;7.470;2022-09-17T06:21:00;8.70;99.90
27439;DHT22;14887;51.252;7.470;2022-09-17T06:23:26;8.70;99.90
27439;DHT22;14887;51.252;7.470;2022-09-17T06:25:54;8.60;99.90
27439;DHT22;14887;51.252;7.470;2022-09-17T06:28:20;8.60;99.90
27439;DHT22;14887;51.252;7.470;2022-09-17T06:30:45;8.60;99.90
27439;DHT22;14887;51.252;7.470;2022-09-17T06:33:11;8.60;99.90
27439;DHT22;14887;51.252;7.470;2022-09-17T06:35:37;8.70;99.90
27439;DHT22;14887;51.252;7.470;2022-09-17T06:38:05;8.70;99.90
27439;DHT22;14887;51.252;7.470;2022-09-17T06:40:31;8.80;99.90
27439;DHT22;14887;51.252;7.470;2022-09-17T06:42:57;8.90;99.90
27439;DHT22;14887;51.252;7.470;2022-09-17T06:45:24;8.90;99.90
27439;DHT22;14887;51.252;7.470;2022-09-17T06:47:50;9.10;99.90
27439;DHT22;14887;51.252;7.470;2022-09-17T06:50:16;9.20;99.90
27439;DHT22;14887;51.252;7.470;2022-09-17T06:52:48;9.30;99.90
27439;DHT22;14887;51.252;7.470;2022-09-17T06:55:14;9.10;99.90
27439;DHT22;14887;51.252;7.470;2022-09-17T06:57:40;9.10;99.90
27439;DHT22;14887;51.252;7.470;2022-09-17T07:00:06;9.00;99.90
27439;DHT22;14887;51.252;7.470;2022-09-17T07:02:33;9.00;99.90
27439;DHT22;14887;51.252;7.470;2022-09-17T07:04:59;9.00;99.90
27439;DHT22;14887;51.252;7.470;2022-09-17T07:07:24;9.10;99.90
27439;DHT22;14887;51.252;7.470;2022-09-17T07:09:50;9.00;99.90
27439;DHT22;14887;51.252;7.470;2022-09-17T07:12:16;9.00;99.90
27439;DHT22;14887;51.252;7.470;2022-09-17T07:14:42;8.90;99.90
27439;DHT22;14887;51.252;7.470;2022-09-17T07:17:07;8.80;99.90
27439;DHT22;14887;51.252;7.470;2022-09-17T07:19:33;8.70;99.90
27439;DHT22;14887;51.252;7.470;2022-09-17T07:21:59;8.60;99.90
27439;DHT22;14887;51.252;7.470;2022-09-17T07:24:24;8.50;99.90
27439;DHT22;14887;51.252;7.470;2022-09-17T07:26:50;8.50;99.90
27439;DHT22;14887;51.252;7.470;2022-09-17T07:29:16;8.50;99.90
27439;DHT22;14887;51.252;7.470;2022-09-17T07:31:43;8.50;99.90
27439;DHT22;14887;51.252;7.470;2022-09-17T07:34:09;8.50;99.90
27439;DHT22;14887;51.252;7.470;2022-09-17T07:36:35;8.50;99.90
27439;DHT22;14887;51.252;7.470;2022-09-17T07:39:00;8.50;99.90
27439;DHT22;14887;51.252;7.470;2022-09-17T07:41:26;8.50;99.90
27439;DHT22;14887;51.252;7.470;2022-09-17T07:43:52;8.50;99.90
27439;DHT22;14887;51.252;7.470;2022-09-17T07:46:19;8.70;99.90
27439;DHT22;14887;51.252;7.470;2022-09-17T07:48:46;9.30;99.90
27439;DHT22;14887;51.252;7.470;2022-09-17T07:51:20;10.00;99.90
27439;DHT22;14887;51.252;7.470;2022-09-17T07:53:46;10.20;99.90
27439;DHT22;14887;51.252;7.470;2022-09-17T07:56:13;10.50;99.90
27439;DHT22;14887;51.252;7.470;2022-09-17T07:58:38;10.90;99.90
27439;DHT22;14887;51.252;7.470;2022-09-17T08:01:06;11.30;99.90
27439;DHT22;14887;51.252;7.470;2022-09-17T08:03:33;11.70;99.90
27439;DHT22;14887;51.252;7.470;2022-09-17T08:06:08;12.20;99.90
27439;DHT22;14887;51.252;7.470;2022-09-17T08:08:34;13.10;99.90
27439;DHT22;14887;51.252;7.470;2022-09-17T08:11:06;13.40;99.90
27439;DHT22;14887;51.252;7.470;2022-09-17T08:13:32;13.30;99.90
27439;DHT22;14887;51.252;7.470;2022-09-17T08:16:03;13.40;99.90
27439;DHT22;14887;51.252;7.470;2022-09-17T08:18:29;13.20;99.90
27439;DHT22;14887;51.252;7.470;2022-09-17T08:20:56;12.90;99.90
27439;DHT22;14887;51.252;7.470;2022-09-17T08:23:22;12.80;99.90
27439;DHT22;14887;51.252;7.470;2022-09-17T08:25:52;12.20;99.90
27439;DHT22;14887;51.252;7.470;2022-09-17T08:28:18;11.50;99.90
27439;DHT22;14887;51.252;7.470;2022-09-17T08:30:43;11.30;99.90
27439;DHT22;14887;51.252;7.470;2022-09-17T08:33:10;11.00;99.90
27439;DHT22;14887;51.252;7.470;2022-09-17T08:35:36;11.10;99.90
27439;DHT22;14887;51.252;7.470;2022-09-17T08:38:01;11.30;99.90
27439;DHT22;14887;51.252;7.470;2022-09-17T08:40:27;11.30;99.90
27439;DHT22;14887;51.252;7.470;2022-09-17T08:42:59;11.10;99.90
27439;DHT22;14887;51.252;7.470;2022-09-17T08:45:27;11.00;99.90
27439;DHT22;14887;51.252;7.470;2022-09-17T08:48:01;11.00;99.90
27439;DHT22;14887;51.252;7.470;2022-09-17T08:50:34;11.50;99.90
27439;DHT22;14887;51.252;7.470;2022-09-17T08:53:25;11.50;99.90
27439;DHT22;14887;51.252;7.470;2022-09-17T08:56:12;12.00;99.90
27439;DHT22;14887;51.252;7.470;2022-09-17T08:59:10;12.90;99.90
27439;DHT22;14887;51.252;7.470;2022-09-17T09:04:35;13.30;99.90
27439;DHT22;14887;51.252;7.470;2022-09-17T09:07:19;13.20;1.00
27439;DHT22;14887;51.252;7.470;2022-09-17T09:12:25;13.50;1.00
27439;DHT22;14887;51.252;7.470;2022-09-17T09:15:01;13.70;1.00
27439;DHT22;14887;51.252;7.470;2022-09-17T09:17:41;13.20;99.90
27439;DHT22;14887;51.252;7.470;2022-09-17T09:22:51;13.90;1.00
27439;DHT22;14887;51.252;7.470;2022-09-17T09:25:30;13.40;1.00
27439;DHT22;14887;51.252;7.470;2022-09-17T09:33:51;12.80;1.00
27439;DHT22;14887;51.252;7.470;2022-09-17T09:36:17;12.70;1.00
27439;DHT22;14887;51.252;7.470;2022-09-17T09:39:08;12.40;99.90
27439;DHT22;14887;51.252;7.470;2022-09-17T09:41:59;12.20;1.00
27439;DHT22;14887;51.252;7.470;2022-09-17T09:44:28;12.10;1.00
27439;DHT22;14887;51.252;7.470;2022-09-17T09:47:19;12.10;1.00
27439;DHT22;14887;51.252;7.470;2022-09-17T09:56:18;13.10;1.00
27439;DHT22;14887;51.252;7.470;2022-09-17T09:58:48;13.50;1.00
27439;DHT22;14887;51.252;7.470;2022-09-17T10:01:18;13.30;1.00
27439;DHT22;14887;51.252;7.470;2022-09-17T10:03:45;13.00;1.00
27439;DHT22;14887;51.252;7.470;2022-09-17T10:06:13;12.80;1.00
27439;DHT22;14887;51.252;7.470;2022-09-17T10:11:27;12.70;1.00
27439;DHT22;14887;51.252;7.470;2022-09-17T10:13:52;12.90;1.00
27439;DHT22;14887;51.252;7.470;2022-09-17T10:16:37;12.80;1.00
27439;DHT22;14887;51.252;7.470;2022-09-17T10:21:41;12.30;1.00
27439;DHT22;14887;51.252;7.470;2022-09-17T10:24:23;12.40;99.90
27439;DHT22;14887;51.252;7.470;2022-09-17T10:26:50;12.60;1.00
27439;DHT22;14887;51.252;7.470;2022-09-17T10:29:18;12.80;1.00
27439;DHT22;14887;51.252;7.470;2022-09-17T10:31:50;13.20;1.00
27439;DHT22;14887;51.252;7.470;2022-09-17T10:34:24;13.50;1.00
27439;DHT22;14887;51.252;7.470;2022-09-17T10:36:51;13.90;99.90
27439;DHT22;14887;51.252;7.470;2022-09-17T10:39:32;14.20;1.00
27439;DHT22;14887;51.252;7.470;2022-09-17T10:42:03;14.40;1.00
27439;DHT22;14887;51.252;7.470;2022-09-17T10:44:32;14.20;99.90
27439;DHT22;14887;51.252;7.470;2022-09-17T10:47:03;13.10;87.50
27439;DHT22;14887;51.252;7.470;2022-09-17T10:49:36;11.60;99.90
27439;DHT22;14887;51.252;7.470;2022-09-17T10:52:10;10.60;99.90
27439;DHT22;14887;51.252;7.470;2022-09-17T10:55:03;10.20;99.90
27439;DHT22;14887;51.252;7.470;2022-09-17T10:57:58;10.40;99.90
27439;DHT22;14887;51.252;7.470;2022-09-17T11:11:30;11.10;99.90
27439;DHT22;14887;51.252;7.470;2022-09-17T11:14:27;11.30;99.90
27439;DHT22;14887;51.252;7.470;2022-09-17T11:22:24;12.40;99.90
27439;DHT22;14887;51.252;7.470;2022-09-17T11:27:36;12.70;99.90
27439;DHT22;14887;51.252;7.470;2022-09-17T11:30:16;12.30;1.00
27439;DHT22;14887;51.252;7.470;2022-09-17T11:33:05;11.50;99.90
27439;DHT22;14887;51.252;7.470;2022-09-17T11:35:49;10.50;99.90
27439;DHT22;14887;51.252;7.470;2022-09-17T11:41:07;9.30;99.90
27439;DHT22;14887;51.252;7.470;2022-09-17T11:43:37;9.00;99.90
27439;DHT22;14887;51.252;7.470;2022-09-17T11:46:11;8.80;99.90
27439;DHT22;14887;51.252;7.470;2022-09-17T11:48:44;8.70;99.90
27439;DHT22;14887;51.252;7.470;2022-09-17T11:51:29;8.70;99.90
27439;DHT22;14887;51.252;7.470;2022-09-17T11:56:43;8.30;99.90
27439;DHT22;14887;51.252;7.470;2022-09-17T11:59:32;8.30;99.90
27439;DHT22;14887;51.252;7.470;2022-09-17T12:02:04;8.20;99.90
27439;DHT22;14887;51.252;7.470;2022-09-17T12:05:10;8.20;99.90
27439;DHT22;14887;51.252;7.470;2022-09-17T12:10:51;8.50;99.90
27439;DHT22;14887;51.252;7.470;2022-09-17T12:15:49;8.70;99.90
27439;DHT22;14887;51.252;7.470;2022-09-17T12:18:34;8.80;99.90
27439;DHT22;14887;51.252;7.470;2022-09-17T12:21:05;8.90;99.90
27439;DHT22;14887;51.252;7.470;2022-09-17T12:23:41;9.30;99.90
27439;DHT22;14887;51.252;7.470;2022-09-17T12:26:32;9.70;99.90
27439;DHT22;14887;51.252;7.470;2022-09-17T12:37:32;10.30;99.90
27439;DHT22;14887;51.252;7.470;2022-09-17T12:43:01;10.90;99.90
27439;DHT22;14887;51.252;7.470;2022-09-17T12:45:56;11.20;99.90
27439;DHT22;14887;51.252;7.470;2022-09-17T12:51:45;11.60;99.90
27439;DHT22;14887;51.252;7.470;2022-09-17T12:54:27;12.00;99.90
27439;DHT22;14887;51.252;7.470;2022-09-17T13:00:09;12.40;99.90
27439;DHT22;14887;51.252;7.470;2022-09-17T13:02:40;12.50;99.90
27439;DHT22;14887;51.252;7.470;2022-09-17T13:08:13;12.40;99.90
27439;DHT22;14887;51.252;7.470;2022-09-17T13:11:04;11.70;99.90
27439;DHT22;14887;51.252;7.470;2022-09-17T13:16:32;11.10;99.90
27439;DHT22;14887;51.252;7.470;2022-09-17T13:19:07;10.90;99.90
27439;DHT22;14887;51.252;7.470;2022-09-17T13:21:58;11.60;99.90
27439;DHT22;14887;51.252;7.470;2022-09-17T13:24:26;12.30;99.90
27439;DHT22;14887;51.252;7.470;2022-09-17T13:26:55;13.10;99.90
27439;DHT22;14887;51.252;7.470;2022-09-17T13:29:56;13.70;99.90
27439;DHT22;14887;51.252;7.470;2022-09-17T13:40:30;16.50;99.90
27439;DHT22;14887;51.252;7.470;2022-09-17T13:43:08;17.10;99.90
27439;DHT22;14887;51.252;7.470;2022-09-17T13:48:30;17.70;1.00
27439;DHT22;14887;51.252;7.470;2022-09-17T13:50:56;17.40;1.00
27439;DHT22;14887;51.252;7.470;2022-09-17T13:53:24;17.40;1.00
27439;DHT22;14887;51.252;7.470;2022-09-17T13:55:56;16.40;1.00
27439;DHT22;14887;51.252;7.470;2022-09-17T13:58:32;15.50;1.00
27439;DHT22;14887;51.252;7.470;2022-09-17T14:01:05;14.80;1.00
27439;DHT22;14887;51.252;7.470;2022-09-17T14:16:25;17.50;1.00
27439;DHT22;14887;51.252;7.470;2022-09-17T14:19:32;16.40;99.90
27439;DHT22;14887;51.252;7.470;2022-09-17T14:22:25;14.40;1.00
27439;DHT22;14887;51.252;7.470;2022-09-17T14:24:52;12.40;99.90
27439;DHT22;14887;51.252;7.470;2022-09-17T14:27:43;11.20;99.90
27439;DHT22;14887;51.252;7.470;2022-09-17T14:35:40;8.80;99.90
27439;DHT22;14887;51.252;7.470;2022-09-17T14:43:37;8.40;99.90
27439;DHT22;14887;51.252;7.470;2022-09-17T14:46:07;8.50;99.90
27439;DHT22;14887;51.252;7.470;2022-09-17T14:48:34;8.80;99.90
27439;DHT22;14887;51.252;7.470;2022-09-17T14:53:49;9.80;99.90
27439;DHT22;14887;51.252;7.470;2022-09-17T14:59:40;9.80;99.90
27439;DHT22;14887;51.252;7.470;2022-09-17T15:08:03;13.00;99.90
27439;DHT22;14887;51.252;7.470;2022-09-17T15:10:30;12.80;99.90
27439;DHT22;14887;51.252;7.470;2022-09-17T15:12:55;12.20;99.90
27439;DHT22;14887;51.252;7.470;2022-09-17T15:15:24;11.60;99.90
27439;DHT22;14887;51.252;7.470;2022-09-17T15:17:51;12.10;99.90
27439;DHT22;14887;51.252;7.470;2022-09-17T15:20:22;12.50;99.90
27439;DHT22;14887;51.252;7.470;2022-09-17T15:23:18;12.80;99.90
27439;DHT22;14887;51.252;7.470;2022-09-17T15:25:48;13.80;99.90
27439;DHT22;14887;51.252;7.470;2022-09-17T15:28:29;14.30;99.90
27439;DHT22;14887;51.252;7.470;2022-09-17T15:30:56;14.40;14.20
27439;DHT22;14887;51.252;7.470;2022-09-17T15:33:21;14.20;99.90
27439;DHT22;14887;51.252;7.470;2022-09-17T15:38:28;13.60;99.90
27439;DHT22;14887;51.252;7.470;2022-09-17T15:40:55;13.00;99.90
27439;DHT22;14887;51.252;7.470;2022-09-17T15:43:38;12.70;99.90
27439;DHT22;14887;51.252;7.470;2022-09-17T15:46:24;12.30;99.90
27439;DHT22;14887;51.252;7.470;2022-09-17T15:48:56;12.50;99.90
27439;DHT22;14887;51.252;7.470;2022-09-17T15:51:33;13.10;99.90
27439;DHT22;14887;51.252;7.470;2022-09-17T15:54:04;13.80;99.90
27439;DHT22;14887;51.252;7.470;2022-09-17T15:56:33;13.90;99.90
27439;DHT22;14887;51.252;7.470;2022-09-17T15:59:02;14.10;99.90
27439;DHT22;14887;51.252;7.470;2022-09-17T16:08:55;13.10;99.90
27439;DHT22;14887;51.252;7.470;2022-09-17T16:11:23;12.20;99.90
27439;DHT22;14887;51.252;7.470;2022-09-17T16:13:50;11.50;99.90
27439;DHT22;14887;51.252;7.470;2022-09-17T16:16:18;11.10;99.90
27439;DHT22;14887;51.252;7.470;2022-09-17T16:18:44;10.70;99.90
27439;DHT22;14887;51.252;7.470;2022-09-17T16:21:14;10.40;99.90
27439;DHT22;14887;51.252;7.470;2022-09-17T16:23:40;10.20;99.90
27439;DHT22;14887;51.252;7.470;2022-09-17T16:26:09;10.00;99.90
27439;DHT22;14887;51.252;7.470;2022-09-17T16:28:37;9.90;99.90
27439;DHT22;14887;51.252;7.470;2022-09-17T16:31:04;9.80;99.90
27439;DHT22;14887;51.252;7.470;2022-09-17T16:33:30;9.60;99.90
27439;DHT22;14887;51.252;7.470;2022-09-17T16:35:57;9.50;99.90
27439;DHT22;14887;51.252;7.470;2022-09-17T16:38:23;9.30;99.90
27439;DHT22;14887;51.252;7.470;2022-09-17T16:40:49;9.20;99.90
27439;DHT22;14887;51.252;7.470;2022-09-17T16:43:16;9.00;99.90
27439;DHT22;14887;51.252;7.470;2022-09-17T16:45:42;9.00;99.90
27439;DHT22;14887;51.252;7.470;2022-09-17T16:48:08;8.80;99.90
27439;DHT22;14887;51.252;7.470;2022-09-17T16:50:34;8.80;99.90
27439;DHT22;14887;51.252;7.470;2022-09-17T16:53:00;8.70;99.90
27439;DHT22;14887;51.252;7.470;2022-09-17T16:55:28;8.60;99.90
27439;DHT22;14887;51.252;7.470;2022-09-17T16:57:56;8.50;99.90
27439;DHT22;14887;51.252;7.470;2022-09-17T17:00:21;8.60;99.90
27439;DHT22;14887;51.252;7.470;2022-09-17T17:02:52;8.60;99.90
27439;DHT22;14887;51.252;7.470;2022-09-17T17:05:20;8.50;99.90
27439;DHT22;14887;51.252;7.470;2022-09-17T17:07:45;8.50;99.90
27439;DHT22;14887;51.252;7.470;2022-09-17T17:10:11;8.40;99.90
27439;DHT22;14887;51.252;7.470;2022-09-17T17:12:37;8.40;99.90
27439;DHT22;14887;51.252;7.470;2022-09-17T17:15:03;8.50;99.90
27439;DHT22;14887;51.252;7.470;2022-09-17T17:17:31;8.60;99.90
27439;DHT22;14887;51.252;7.470;2022-09-17T17:19:57;8.60;99.90
27439;DHT22;14887;51.252;7.470;2022-09-17T17:22:24;8.60;99.90
27439;DHT22;14887;51.252;7.470;2022-09-17T17:24:49;8.60;99.90
27439;DHT22;14887;51.252;7.470;2022-09-17T17:27:15;8.50;99.90
27439;DHT22;14887;51.252;7.470;2022-09-17T17:29:40;8.50;99.90
27439;DHT22;14887;51.252;7.470;2022-09-17T17:32:06;8.40;99.90
27439;DHT22;14887;51.252;7.470;2022-09-17T17:34:31;8.30;99.90
27439;DHT22;14887;51.252;7.470;2022-09-17T17:36:57;8.40;99.90
27439;DHT22;14887;51.252;7.470;2022-09-17T17:39:23;8.40;99.90
27439;DHT22;14887;51.252;7.470;2022-09-17T17:41:49;8.40;99.90
27439;DHT22;14887;51.252;7.470;2022-09-17T17:44:14;8.40;99.90
27439;DHT22;14887;51.252;7.470;2022-09-17T17:46:40;8.40;99.90
27439;DHT22;14887;51.252;7.470;2022-09-17T17:49:06;8.40;99.90
27439;DHT22;14887;51.252;7.470;2022-09-17T17:51:33;8.30;99.90
27439;DHT22;14887;51.252;7.470;2022-09-17T17:53:58;8.30;99.90
27439;DHT22;14887;51.252;7.470;2022-09-17T17:56:24;8.20;99.90
27439;DHT22;14887;51.252;7.470;2022-09-17T17:58:54;8.10;99.90
27439;DHT22;14887;51.252;7.470;2022-09-17T18:01:22;8.20;99.90
27439;DHT22;14887;51.252;7.470;2022-09-17T18:03:48;8.20;99.90
27439;DHT22;14887;51.252;7.470;2022-09-17T18:06:14;8.20;99.90
27439;DHT22;14887;51.252;7.470;2022-09-17T18:08:41;8.20;99.90
27439;DHT22;14887;51.252;7.470;2022-09-17T18:11:09;8.30;99.90
27439;DHT22;14887;51.252;7.470;2022-09-17T18:13:36;8.30;99.90
27439;DHT22;14887;51.252;7.470;2022-09-17T18:16:03;8.20;99.90
27439;DHT22;14887;51.252;7.470;2022-09-17T18:18:34;8.10;99.90
27439;DHT22;14887;51.252;7.470;2022-09-17T18:21:02;8.10;99.90
27439;DHT22;14887;51.252;7.470;2022-09-17T18:23:30;8.10;99.90
27439;DHT22;14887;51.252;7.470;2022-09-17T18:25:58;8.00;99.90
27439;DHT22;14887;51.252;7.470;2022-09-17T18:28:24;8.00;99.90
27439;DHT22;14887;51.252;7.470;2022-09-17T18:30:50;7.90;99.90
27439;DHT22;14887;51.252;7.470;2022-09-17T18:33:18;7.90;99.90
27439;DHT22;14887;51.252;7.470;2022-09-17T18:35:44;8.00;99.90
27439;DHT22;14887;51.252;7.470;2022-09-17T18:38:10;8.00;99.90
27439;DHT22;14887;51.252;7.470;2022-09-17T18:40:35;8.00;99.90
27439;DHT22;14887;51.252;7.470;2022-09-17T18:43:01;8.10;99.90
27439;DHT22;14887;51.252;7.470;2022-09-17T18:45:26;8.10;99.90
27439;DHT22;14887;51.252;7.470;2022-09-17T18:47:52;8.20;99.90
27439;DHT22;14887;51.252;7.470;2022-09-17T18:50:17;8.20;99.90
27439;DHT22;14887;51.252;7.470;2022-09-17T18:52:43;8.30;99.90
27439;DHT22;14887;51.252;7.470;2022-09-17T18:55:08;8.30;99.90